Ada, Minnesota
Current Conditions -  °F | °C
As of 2:35 PM on Saturday 25 Oct 2014 (Local Time) from K3N8 Reporting Station
Clear Clear  
Wind Chill: 14°   Ceiling: Unl
Heat Index: 14°   Visibility: 10mi
Dew Point: -4°   Wind: 17mph
Humidity: 29%   Direction: 310°NW
Pressure: 30.05"   Gusts: 30mph
Location:  47.3°N, 96.52°W
Report Text: K3N8 251935Z AUTO 31015G26KT 10SM CLR 14/M03 A3005 RMK AO2 T01431035
Loading
Personal Weather Stations






























Interactive Weather Map
Tropical Storm Tracking
New forecast layout! Learn more

10-Day Weather Forecast

Advertisements
Track Severe Weather on mobile